Terminal Aerodrome Forecast
Issued by NWS

Home | Current Version | Previous Version | Text Only | Print | Product List | Glossary On
Versions: 1 2 3 4 5 6 7 8 9 10 11 12 13 14 15
039
FTUS45 KABQ 302337
TAFLVS
TAF
KLVS 302337Z 3100/3124 20010G16KT P6SM SCT090 SCT150
     FM310200 21010G15KT P6SM VCSH BKN090
     FM310500 19008KT P6SM BKN120
     FM311800 20010G20KT P6SM FEW080
     FM312100 21014G24KT P6SM VCTS SCT080CB BKN120=

USA.gov is the U.S. government's official web portal to all federal, state and local government web resources and services.